MST,Max TemperatureF,Mean TemperatureF,Min TemperatureF,Max Dew PointF,MeanDew PointF,Min DewpointF,Max Humidity, Mean Humidity, Min Humidity, Max Sea Level PressureIn, Mean Sea Level PressureIn, Min Sea Level PressureIn, Max VisibilityMiles, Mean VisibilityMiles, Min VisibilityMiles, Max Wind SpeedMPH, Mean Wind SpeedMPH, Max Gust SpeedMPH,PrecipitationIn, CloudCover, Events, WindDirDegrees
2013-1-1,29,19,9,14,11,6,83,67,50,30.58,30.44,30.17,10,10,10,17,5,21,0.00,3,,265
2013-1-2,17,9,0,7,2,-3,95,81,67,30.72,30.62,30.39,10,9,1,6,1,8,0.00,0,,279
2013-1-3,17,8,-1,5,2,-4,95,78,61,30.66,30.57,30.48,10,9,6,5,1,5,0.00,0,,311
2013-1-4,24,11,-3,13,4,-3,87,72,56,30.54,30.47,30.24,10,9,7,9,1,12,0.00,2,,228
2013-1-5,28,17,6,14,10,4,83,69,55,30.54,30.43,30.20,10,10,9,7,2,8,0.00,0,,275
2013-1-6,35,24,13,23,16,11,88,72,56,30.29,30.17,30.11,10,10,9,10,3,13,0.00,5,,251
2013-1-7,42,32,21,26,21,15,81,65,49,30.10,29.95,29.82,10,10,10,24,3,35,0.00,7,,259
2013-1-8,41,33,25,26,21,18,75,60,44,30.07,30.01,29.84,10,10,9,30,10,37,T,6,,265
2013-1-9,48,38,27,26,23,20,75,57,38,30.04,29.88,29.58,10,10,10,22,9,35,0.00,1,,200
2013-1-10,38,24,10,30,16,2,92,78,64,30.03,29.75,29.58,10,3,0,22,13,28,0.31,8,Fog-Snow,317
2013-1-11,10,5,0,3,1,-3,86,76,66,30.38,30.10,29.85,10,4,1,18,8,23,0.03,8,Snow,306
2013-1-12,6,-1,-8,0,-4,-10,95,87,79,30.48,30.37,30.07,10,8,2,6,1,7,T,6,Snow,308
2013-1-13,10,4,-3,0,-2,-6,91,80,69,30.54,30.47,30.17,10,9,5,9,2,12,0.01,6,Snow,304
2013-1-14,15,5,-6,10,0,-9,91,82,73,30.51,30.41,30.17,10,9,2,7,2,9,T,6,Snow,278
2013-1-15,34,25,15,20,16,10,81,65,49,30.52,30.43,30.17,10,10,10,25,6,31,0.00,4,,260
2013-1-16,44,30,15,22,16,9,80,58,36,30.55,30.44,30.24,10,10,10,32,9,43,0.00,0,,270
2013-1-17,32,23,13,17,14,10,80,67,53,30.58,30.49,30.39,10,10,7,10,4,12,0.00,0,,296
2013-1-18,49,34,18,23,15,10,84,55,25,30.34,30.22,30.00,10,10,10,24,7,30,0.00,0,,265
2013-1-19,43,34,25,23,17,9,69,47,24,30.38,30.30,30.25,10,10,10,15,4,18,0.00,0,,287
2013-1-20,40,31,21,19,17,15,84,59,34,30.58,30.48,30.34,10,10,10,22,5,29,0.00,5,,315
2013-1-21,32,24,15,19,16,14,92,78,63,30.42,30.34,30.25,10,8,6,7,2,9,0.00,1,,293
2013-1-22,35,25,14,16,14,10,88,69,49,30.37,30.30,30.26,10,10,6,12,3,13,0.00,0,,286
2013-1-23,33,27,20,22,18,15,84,71,58,30.28,30.18,30.04,10,10,8,7,1,8,0.00,1,,301
2013-1-24,44,36,27,30,23,21,78,62,45,30.22,30.13,30.03,10,10,10,25,8,33,0.00,3,,268
2013-1-25,40,33,26,30,26,21,82,71,59,30.21,30.13,30.03,10,10,10,10,2,10,0.00,4,,248
2013-1-26,46,36,25,32,28,25,92,77,62,30.00,29.88,29.73,10,10,10,23,4,26,T,5,Rain,264
2013-1-27,36,31,26,26,18,13,75,60,44,29.97,29.93,29.88,10,10,10,24,9,30,0.00,2,,258
2013-1-28,32,28,23,18,15,14,74,62,49,29.98,29.92,29.83,10,10,10,12,4,14,0.00,5,,161
2013-1-29,28,19,9,18,6,-2,68,63,58,30.33,30.15,29.71,10,10,9,22,8,25,0.00,7,,338
2013-1-30,41,26,11,27,17,2,80,67,54,30.19,30.12,30.04,10,10,10,28,9,39,T,8,,275
2013-1-31,43,37,30,29,26,23,72,63,53,30.17,30.14,30.06,10,10,10,24,13,33,0.00,7,,276